createdAt,value
2023-05-04T00:02:19.444Z,11.00
2023-05-04T00:04:48.303Z,11.20
2023-05-04T00:07:17.344Z,11.00
2023-05-04T00:09:47.033Z,11.39
2023-05-04T00:12:15.563Z,10.95
2023-05-04T00:14:43.852Z,11.00
2023-05-04T00:17:12.955Z,10.90
2023-05-04T00:19:42.368Z,10.92
2023-05-04T00:22:11.150Z,10.80
2023-05-04T00:24:39.645Z,10.86
2023-05-04T00:27:10.345Z,11.08
2023-05-04T00:29:40.406Z,10.82
2023-05-04T00:32:09.150Z,10.75
2023-05-04T00:34:37.836Z,10.81
2023-05-04T00:37:06.806Z,10.61
2023-05-04T00:39:36.235Z,10.70
2023-05-04T00:42:04.943Z,10.62
2023-05-04T00:44:34.871Z,10.87
2023-05-04T00:47:04.252Z,10.68
2023-05-04T00:49:32.564Z,10.46
2023-05-04T00:52:03.073Z,10.81
2023-05-04T00:54:31.673Z,10.33
2023-05-04T00:57:00.444Z,10.39
2023-05-04T00:59:29.203Z,10.39
2023-05-04T01:01:59.207Z,10.66
2023-05-04T01:04:27.898Z,10.37
2023-05-04T01:07:02.139Z,10.77
2023-05-04T01:09:33.871Z,10.71
2023-05-04T01:12:06.668Z,10.71
2023-05-04T01:14:36.022Z,10.57
2023-05-04T01:17:07.498Z,10.66
2023-05-04T01:19:36.527Z,10.46
2023-05-04T01:22:08.318Z,10.54
2023-05-04T01:24:36.720Z,10.23
2023-05-04T01:27:07.825Z,10.39
2023-05-04T01:29:42.212Z,10.57
2023-05-04T01:32:12.062Z,10.33
2023-05-04T01:34:41.582Z,10.35
2023-05-04T01:37:12.353Z,10.35
2023-05-04T01:39:40.839Z,10.06
2023-05-04T01:42:09.504Z,9.90
2023-05-04T01:44:38.058Z,10.02
2023-05-04T01:47:07.005Z,10.02
2023-05-04T01:49:35.253Z,9.85
2023-05-04T01:52:04.143Z,9.96
2023-05-04T01:54:34.176Z,10.16
2023-05-04T01:57:03.243Z,9.75
2023-05-04T01:59:31.991Z,9.74
2023-05-04T02:02:00.595Z,9.62
2023-05-04T02:04:29.110Z,9.64
2023-05-04T02:06:57.772Z,9.49
2023-05-04T02:09:26.498Z,9.68
2023-05-04T02:11:56.732Z,9.89
2023-05-04T02:14:25.026Z,9.42
2023-05-04T02:16:53.893Z,9.54
2023-05-04T02:19:22.229Z,9.41
2023-05-04T02:21:52.616Z,9.48
2023-05-04T02:24:21.702Z,9.38
2023-05-04T02:26:50.316Z,9.43
2023-05-04T02:29:20.412Z,9.75
2023-05-04T02:31:49.179Z,9.36
2023-05-04T02:34:17.529Z,9.43
2023-05-04T02:36:47.305Z,9.31
2023-05-04T02:39:15.725Z,9.34
2023-05-04T02:41:44.634Z,9.18
2023-05-04T02:44:13.082Z,9.30
2023-05-04T02:46:43.613Z,9.73
2023-05-04T02:49:12.030Z,9.31
2023-05-04T02:51:40.627Z,9.44
2023-05-04T02:54:09.141Z,9.35
2023-05-04T02:56:37.683Z,9.27
2023-05-04T02:59:06.265Z,9.32
2023-05-04T03:01:35.097Z,9.36
2023-05-04T03:04:05.078Z,9.62
2023-05-04T03:06:33.987Z,9.40
2023-05-04T03:09:02.218Z,9.24
2023-05-04T03:11:31.876Z,9.63
2023-05-04T03:14:00.075Z,9.29
2023-05-04T03:16:29.117Z,9.31
2023-05-04T03:18:58.301Z,9.30
2023-05-04T03:21:28.284Z,9.62
2023-05-04T03:23:57.072Z,9.24
2023-05-04T03:26:25.870Z,9.40
2023-05-04T03:28:54.884Z,9.50
2023-05-04T03:31:23.594Z,9.37
2023-05-04T03:33:52.107Z,9.12
2023-05-04T03:36:20.747Z,9.24
2023-05-04T03:38:50.362Z,9.65
2023-05-04T03:41:19.087Z,9.55
2023-05-04T03:43:47.712Z,9.73
2023-05-04T03:46:16.401Z,9.76
2023-05-04T03:48:44.803Z,9.90
2023-05-04T03:51:13.464Z,10.08
2023-05-04T03:53:43.417Z,10.31
2023-05-04T03:56:15.106Z,10.77
2023-05-04T03:58:43.278Z,10.43
2023-05-04T04:01:12.002Z,10.76
2023-05-04T04:03:41.140Z,10.88
2023-05-04T04:06:10.767Z,11.27
2023-05-04T04:08:39.181Z,11.45
2023-05-04T04:11:07.766Z,11.66
2023-05-04T04:13:38.452Z,12.32
2023-05-04T04:16:07.876Z,12.25
2023-05-04T04:18:36.400Z,12.45
2023-05-04T04:21:05.276Z,12.71
2023-05-04T04:23:33.680Z,12.85
2023-05-04T04:26:02.949Z,13.37
2023-05-04T04:28:31.323Z,13.68
2023-05-04T04:31:02.044Z,14.47
2023-05-04T04:33:30.449Z,14.51
2023-05-04T04:35:59.156Z,14.96
2023-05-04T04:38:27.499Z,15.30
2023-05-04T04:40:55.971Z,15.41
2023-05-04T04:43:24.566Z,15.80
2023-05-04T04:45:54.034Z,15.99
2023-05-04T04:48:25.449Z,16.51
2023-05-04T04:50:54.294Z,16.54
2023-05-04T04:53:22.842Z,16.73
2023-05-04T04:55:52.446Z,17.17
2023-05-04T04:58:21.101Z,17.44
2023-05-04T05:00:52.376Z,18.07
2023-05-04T05:03:21.012Z,18.58
2023-05-04T05:05:51.220Z,19.37
2023-05-04T05:08:19.641Z,19.51
2023-05-04T05:10:48.131Z,19.86
2023-05-04T05:13:16.816Z,20.28
2023-05-04T05:15:46.573Z,20.80
2023-05-04T05:18:14.910Z,21.27
2023-05-04T05:20:43.791Z,21.90
2023-05-04T05:23:13.328Z,22.93
2023-05-04T05:25:44.018Z,23.11
2023-05-04T05:28:12.255Z,23.80
2023-05-04T05:30:41.001Z,23.97
2023-05-04T05:33:10.424Z,24.00
2023-05-04T05:35:39.191Z,24.41
2023-05-04T05:38:07.502Z,25.17
2023-05-04T05:40:37.968Z,25.91
2023-05-04T05:43:06.728Z,26.25
2023-05-04T05:45:35.296Z,26.44
2023-05-04T05:48:04.325Z,26.45
2023-05-04T05:50:33.053Z,26.43
2023-05-04T05:53:01.541Z,27.35
2023-05-04T05:55:30.110Z,27.91
2023-05-04T05:57:59.781Z,28.77
2023-05-04T06:00:28.644Z,28.87
2023-05-04T06:02:56.992Z,28.91
2023-05-04T06:05:25.952Z,28.97
2023-05-04T06:07:54.593Z,28.90
2023-05-04T06:10:23.334Z,29.18
2023-05-04T06:12:51.608Z,27.75
2023-05-04T06:15:21.591Z,27.86
2023-05-04T06:17:50.005Z,27.51
2023-05-04T06:20:19.234Z,28.35
2023-05-04T06:22:47.918Z,28.28
2023-05-04T06:25:16.644Z,28.96
2023-05-04T06:27:45.392Z,28.91
2023-05-04T06:30:16.083Z,28.94
2023-05-04T06:32:47.180Z,30.49
2023-05-04T06:35:16.383Z,31.49
2023-05-04T06:37:44.971Z,31.60
2023-05-04T06:40:16.121Z,32.11
2023-05-04T06:42:45.181Z,32.31
2023-05-04T06:45:16.027Z,32.40
2023-05-04T06:47:46.270Z,31.07
2023-05-04T06:50:15.784Z,29.87
2023-05-04T06:52:45.430Z,29.98
2023-05-04T06:55:15.444Z,30.00
2023-05-04T06:57:44.189Z,29.45
2023-05-04T07:00:15.073Z,30.42
2023-05-04T07:02:43.938Z,31.46
2023-05-04T07:05:14.879Z,32.75
2023-05-04T07:07:43.346Z,33.76
2023-05-04T07:10:12.535Z,33.74
2023-05-04T07:12:43.781Z,34.49
2023-05-04T07:15:13.231Z,35.48
2023-05-04T07:17:42.188Z,36.07
2023-05-04T07:20:13.263Z,35.45
2023-05-04T07:22:43.358Z,33.85
2023-05-04T07:25:12.174Z,31.31
2023-05-04T07:27:45.066Z,29.96
2023-05-04T07:30:15.337Z,30.98
2023-05-04T07:32:43.800Z,29.54
2023-05-04T07:35:12.851Z,28.59
2023-05-04T07:37:42.807Z,29.42
2023-05-04T07:40:15.137Z,31.83
2023-05-04T07:42:44.053Z,33.88
2023-05-04T07:45:13.398Z,33.35
2023-05-04T07:47:43.557Z,31.21
2023-05-04T07:50:15.022Z,30.75
2023-05-04T07:52:49.781Z,32.93
2023-05-04T07:55:33.327Z,32.73
2023-05-04T07:58:02.475Z,32.73
2023-05-04T08:00:31.217Z,34.28
2023-05-04T08:03:00.284Z,35.14
2023-05-04T08:05:29.104Z,36.67
2023-05-04T08:07:59.231Z,36.98
2023-05-04T08:10:27.724Z,36.90
2023-05-04T08:12:57.253Z,35.00
2023-05-04T08:15:25.700Z,32.96
2023-05-04T08:17:55.068Z,32.32
2023-05-04T08:20:24.187Z,30.81
2023-05-04T08:22:53.508Z,31.67
2023-05-04T08:25:23.626Z,34.13
2023-05-04T08:27:52.186Z,32.01
2023-05-04T08:30:20.567Z,29.84
2023-05-04T08:32:51.358Z,30.25
2023-05-04T08:35:19.662Z,30.58
2023-05-04T08:37:49.518Z,31.16
2023-05-04T08:40:19.219Z,32.08
2023-05-04T08:42:50.874Z,34.46
2023-05-04T08:45:19.505Z,33.73
2023-05-04T08:47:48.253Z,33.99
2023-05-04T08:50:17.376Z,36.22
2023-05-04T08:52:47.723Z,35.70
2023-05-04T08:55:17.254Z,34.15
2023-05-04T08:57:46.396Z,33.27
2023-05-04T09:00:18.168Z,35.19
2023-05-04T09:02:50.638Z,37.50
2023-05-04T09:05:19.776Z,37.99
2023-05-04T09:07:51.096Z,37.55
2023-05-04T09:10:20.197Z,39.10
2023-05-04T09:12:48.956Z,40.16
2023-05-04T09:15:19.950Z,39.99
2023-05-04T09:17:57.996Z,39.06
2023-05-04T09:20:27.485Z,36.67
2023-05-04T09:23:07.393Z,36.07
2023-05-04T09:25:36.176Z,35.43
2023-05-04T09:28:05.180Z,34.92
2023-05-04T09:30:34.758Z,36.92
2023-05-04T09:33:03.640Z,39.50
2023-05-04T09:35:34.144Z,41.99
2023-05-04T09:38:04.165Z,42.41
2023-05-04T09:40:33.118Z,39.88
2023-05-04T09:43:02.249Z,38.45
2023-05-04T09:45:41.661Z,39.71
2023-05-04T09:48:19.394Z,42.58
2023-05-04T09:50:53.746Z,43.08
2023-05-04T09:53:24.710Z,43.33
2023-05-04T09:56:06.517Z,45.15
2023-05-04T09:58:37.306Z,43.77
2023-05-04T10:01:09.163Z,43.39
2023-05-04T10:03:40.000Z,44.22
2023-05-04T10:06:09.859Z,43.51
2023-05-04T10:08:40.392Z,40.99
2023-05-04T10:11:08.674Z,43.07
2023-05-04T10:13:37.624Z,39.01
2023-05-04T10:16:15.526Z,36.11
2023-05-04T10:19:13.997Z,35.35
2023-05-04T10:21:50.420Z,38.19
2023-05-04T10:24:33.288Z,42.67
2023-05-04T10:27:07.445Z,43.09
2023-05-04T10:29:36.513Z,40.95
2023-05-04T10:32:08.250Z,40.59
2023-05-04T10:34:38.160Z,42.39
2023-05-04T10:37:17.596Z,43.48
2023-05-04T10:39:52.340Z,41.51
2023-05-04T10:42:20.994Z,42.76
2023-05-04T10:44:55.221Z,45.27
2023-05-04T10:47:33.976Z,44.59
2023-05-04T10:50:04.394Z,43.40
2023-05-04T10:52:32.816Z,44.97
2023-05-04T10:55:02.572Z,43.05
2023-05-04T10:57:31.562Z,41.54
2023-05-04T11:00:01.915Z,40.50
2023-05-04T11:02:34.077Z,38.69
2023-05-04T11:05:04.830Z,37.27
2023-05-04T11:07:37.182Z,40.33
2023-05-04T11:10:06.996Z,39.82
2023-05-04T11:12:35.830Z,38.09
2023-05-04T11:15:06.507Z,36.15
2023-05-04T11:17:36.531Z,37.72
2023-05-04T11:20:06.470Z,36.25
2023-05-04T11:22:34.809Z,36.34
2023-05-04T11:25:04.427Z,35.95
2023-05-04T11:27:33.123Z,34.17
2023-05-04T11:30:03.148Z,32.40
2023-05-04T11:32:37.015Z,30.03
2023-05-04T11:35:09.096Z,29.16
2023-05-04T11:37:41.562Z,28.87
2023-05-04T11:40:12.371Z,26.18
2023-05-04T11:42:41.550Z,25.10
2023-05-04T11:45:14.129Z,24.94
2023-05-04T11:47:45.151Z,24.42
2023-05-04T11:50:14.244Z,24.70
2023-05-04T11:52:43.852Z,24.22
2023-05-04T11:55:13.884Z,24.05
2023-05-04T11:57:42.222Z,23.85
2023-05-04T12:00:12.581Z,23.69
2023-05-04T12:02:41.025Z,22.99
2023-05-04T12:05:15.955Z,22.12
2023-05-04T12:07:44.689Z,21.37
2023-05-04T12:10:13.742Z,21.13
2023-05-04T12:12:42.263Z,21.11
2023-05-04T12:15:11.952Z,20.88
2023-05-04T12:17:43.765Z,21.33
2023-05-04T12:20:23.610Z,21.19
2023-05-04T12:22:52.316Z,21.30
2023-05-04T12:25:21.021Z,21.74
2023-05-04T12:27:49.577Z,22.04
2023-05-04T12:30:18.633Z,22.17
2023-05-04T12:32:47.214Z,22.13
2023-05-04T12:35:17.310Z,22.66
2023-05-04T12:37:45.778Z,21.73
2023-05-04T12:40:27.851Z,21.02
2023-05-04T12:42:56.927Z,20.53
2023-05-04T12:45:25.590Z,20.67
2023-05-04T12:47:53.980Z,19.90
2023-05-04T12:50:24.111Z,20.69
2023-05-04T12:52:52.463Z,20.55
2023-05-04T12:55:24.720Z,20.20
2023-05-04T12:57:53.755Z,20.23
2023-05-04T13:00:22.921Z,20.55
2023-05-04T13:02:51.705Z,20.70
2023-05-04T13:05:20.945Z,20.55
2023-05-04T13:07:50.895Z,20.29
2023-05-04T13:10:19.834Z,20.67
2023-05-04T13:12:48.901Z,20.94
2023-05-04T13:15:17.734Z,21.25
2023-05-04T13:17:46.157Z,21.53
2023-05-04T13:20:15.242Z,22.06
2023-05-04T13:22:43.828Z,22.22
2023-05-04T13:25:14.301Z,22.44
2023-05-04T13:27:42.614Z,21.48
2023-05-04T13:30:12.810Z,21.11
2023-05-04T13:32:42.250Z,21.00
2023-05-04T13:35:11.406Z,21.03
2023-05-04T13:37:39.784Z,21.00
2023-05-04T13:40:09.676Z,20.85
2023-05-04T13:42:39.419Z,20.96
2023-05-04T13:45:09.559Z,20.76
2023-05-04T13:47:38.062Z,20.18
2023-05-04T13:50:08.202Z,20.42
2023-05-04T13:52:37.516Z,20.18
2023-05-04T13:55:07.390Z,20.33
2023-05-04T13:57:35.799Z,20.49
2023-05-04T14:00:08.086Z,20.94
2023-05-04T14:02:37.099Z,20.78
2023-05-04T14:05:07.683Z,20.76
2023-05-04T14:07:37.124Z,20.37
2023-05-04T14:10:06.652Z,20.36
2023-05-04T14:12:37.824Z,20.47
2023-05-04T14:15:09.159Z,21.28
2023-05-04T14:17:39.791Z,21.06
2023-05-04T14:20:09.844Z,21.40
2023-05-04T14:22:41.411Z,21.08
2023-05-04T14:25:10.697Z,21.43
2023-05-04T14:27:39.297Z,20.86
2023-05-04T14:30:10.795Z,21.48
2023-05-04T14:32:39.017Z,22.33
2023-05-04T14:35:10.915Z,21.83
2023-05-04T14:37:41.118Z,21.11
2023-05-04T14:40:11.031Z,21.18
2023-05-04T14:42:39.888Z,20.14
2023-05-04T14:45:11.904Z,20.83
2023-05-04T14:47:42.357Z,20.53
2023-05-04T14:50:12.291Z,20.85
2023-05-04T14:52:40.921Z,20.77
2023-05-04T14:55:10.513Z,20.98
2023-05-04T14:57:39.010Z,19.74
2023-05-04T15:00:09.467Z,20.06
2023-05-04T15:02:39.720Z,19.82
2023-05-04T15:05:10.367Z,19.69
2023-05-04T15:07:38.776Z,20.02
2023-05-04T15:10:09.583Z,20.50
2023-05-04T15:12:39.616Z,19.97
2023-05-04T15:15:09.337Z,20.57
2023-05-04T15:17:37.711Z,20.69
2023-05-04T15:20:10.015Z,21.33
2023-05-04T15:22:38.680Z,20.97
2023-05-04T15:25:08.334Z,20.69
2023-05-04T15:27:36.976Z,20.53
2023-05-04T15:30:09.110Z,20.56
2023-05-04T15:32:37.803Z,19.85
2023-05-04T15:35:08.421Z,20.60
2023-05-04T15:37:36.832Z,20.28
2023-05-04T15:40:06.228Z,20.50
2023-05-04T15:42:34.864Z,20.62
2023-05-04T15:45:03.635Z,20.51
2023-05-04T15:47:32.178Z,19.96
2023-05-04T15:50:01.340Z,19.83
2023-05-04T15:52:31.584Z,20.12
2023-05-04T15:55:12.339Z,19.56
2023-05-04T15:57:49.197Z,19.32
2023-05-04T16:00:18.164Z,19.07
2023-05-04T16:02:46.600Z,19.06
2023-05-04T16:05:15.474Z,19.15
2023-05-04T16:07:45.327Z,19.13
2023-05-04T16:10:17.321Z,19.20
2023-05-04T16:12:45.640Z,19.65
2023-05-04T16:15:14.510Z,19.97
2023-05-04T16:17:43.199Z,19.96
2023-05-04T16:20:12.547Z,20.10
2023-05-04T16:22:41.034Z,19.60
2023-05-04T16:25:11.916Z,19.87
2023-05-04T16:27:40.686Z,19.45
2023-05-04T16:30:10.718Z,18.96
2023-05-04T16:32:39.073Z,19.08
2023-05-04T16:35:09.083Z,19.45
2023-05-04T16:37:38.292Z,19.16
2023-05-04T16:40:14.223Z,19.77
2023-05-04T16:42:43.118Z,19.29
2023-05-04T16:45:14.706Z,19.18
2023-05-04T16:47:43.108Z,19.61
2023-05-04T16:50:12.604Z,19.22
2023-05-04T16:52:41.556Z,19.32
2023-05-04T16:55:12.572Z,18.59
2023-05-04T16:57:41.244Z,18.20
2023-05-04T17:00:12.193Z,18.51
2023-05-04T17:02:40.767Z,18.38
2023-05-04T17:05:10.762Z,18.87
2023-05-04T17:07:39.969Z,18.54
2023-05-04T17:10:10.927Z,18.75
2023-05-04T17:12:40.941Z,18.54
2023-05-04T17:15:11.441Z,18.24
2023-05-04T17:17:40.408Z,18.23
2023-05-04T17:20:14.933Z,18.37
2023-05-04T17:22:44.639Z,17.83
2023-05-04T17:25:14.692Z,18.14
2023-05-04T17:27:45.210Z,18.22
2023-05-04T17:30:14.942Z,18.14
2023-05-04T17:32:43.441Z,17.83
2023-05-04T17:35:23.946Z,17.80
2023-05-04T17:37:55.924Z,17.83
2023-05-04T17:40:27.698Z,18.12
2023-05-04T17:42:58.059Z,18.02
2023-05-04T17:45:27.390Z,17.92
2023-05-04T17:47:57.279Z,17.73
2023-05-04T17:50:26.891Z,17.76
2023-05-04T17:52:56.030Z,17.72
2023-05-04T17:55:25.478Z,17.60
2023-05-04T17:57:54.960Z,17.47
2023-05-04T18:00:25.538Z,18.03
2023-05-04T18:02:54.108Z,17.59
2023-05-04T18:05:23.051Z,17.55
2023-05-04T18:07:51.763Z,17.83
2023-05-04T18:10:20.593Z,17.50
2023-05-04T18:12:48.943Z,17.32
2023-05-04T18:15:18.460Z,17.46
2023-05-04T18:17:48.943Z,17.76
2023-05-04T18:20:17.455Z,17.45
2023-05-04T18:22:45.744Z,17.27
2023-05-04T18:25:15.413Z,17.30
2023-05-04T18:27:43.851Z,17.12
2023-05-04T18:30:13.142Z,17.23
2023-05-04T18:32:43.480Z,17.01
2023-05-04T18:35:13.596Z,17.46
2023-05-04T18:37:42.101Z,16.98
2023-05-04T18:40:11.695Z,17.12
2023-05-04T18:42:40.401Z,16.86
2023-05-04T18:45:11.385Z,17.04
2023-05-04T18:47:39.799Z,16.72
2023-05-04T18:50:10.545Z,16.67
2023-05-04T18:52:40.326Z,16.79
2023-05-04T18:55:09.509Z,16.31
2023-05-04T18:57:37.950Z,16.45
2023-05-04T19:00:09.027Z,16.54
2023-05-04T19:02:38.419Z,16.72
2023-05-04T19:05:07.503Z,16.44
2023-05-04T19:07:35.791Z,16.34
2023-05-04T19:10:06.882Z,16.58
2023-05-04T19:12:35.469Z,16.33
2023-05-04T19:15:04.716Z,16.19
2023-05-04T19:17:34.503Z,16.27
2023-05-04T19:20:03.420Z,15.85
2023-05-04T19:22:31.942Z,15.73
2023-05-04T19:25:04.114Z,16.30
2023-05-04T19:27:34.139Z,15.86
2023-05-04T19:30:02.965Z,15.66
2023-05-04T19:32:33.048Z,15.75
2023-05-04T19:35:02.612Z,15.72
2023-05-04T19:37:31.016Z,15.59
2023-05-04T19:39:59.758Z,15.66
2023-05-04T19:42:28.377Z,15.49
2023-05-04T19:44:58.596Z,15.82
2023-05-04T19:47:26.914Z,15.32
2023-05-04T19:49:55.418Z,15.37
2023-05-04T19:52:23.904Z,15.44
2023-05-04T19:54:53.855Z,15.33
2023-05-04T19:57:22.213Z,15.26
2023-05-04T19:59:50.814Z,15.33
2023-05-04T20:02:20.509Z,15.57
2023-05-04T20:04:49.332Z,15.45
2023-05-04T20:07:17.602Z,15.31
2023-05-04T20:09:46.254Z,15.41
2023-05-04T20:12:14.495Z,15.10
2023-05-04T20:14:43.867Z,15.16
2023-05-04T20:17:12.233Z,15.14
2023-05-04T20:19:43.084Z,15.36
2023-05-04T20:22:11.508Z,14.88
2023-05-04T20:24:40.897Z,14.99
2023-05-04T20:27:09.709Z,14.96
2023-05-04T20:29:38.235Z,14.96
2023-05-04T20:32:07.406Z,14.89
2023-05-04T20:34:36.493Z,14.94
2023-05-04T20:37:06.213Z,15.18
2023-05-04T20:39:35.244Z,15.03
2023-05-04T20:42:04.058Z,14.83
2023-05-04T20:44:32.668Z,14.85
2023-05-04T20:47:00.978Z,14.77
2023-05-04T20:49:29.568Z,14.75
2023-05-04T20:51:58.167Z,14.75
2023-05-04T20:54:28.091Z,15.03
2023-05-04T20:56:56.558Z,14.55
2023-05-04T20:59:25.672Z,14.56
2023-05-04T21:01:54.200Z,14.62
2023-05-04T21:04:22.893Z,14.63
2023-05-04T21:06:51.259Z,14.55
2023-05-04T21:09:20.046Z,14.50
2023-05-04T21:11:49.709Z,14.74
2023-05-04T21:14:18.338Z,14.48
2023-05-04T21:16:46.613Z,14.29
2023-05-04T21:19:15.192Z,14.28
2023-05-04T21:21:43.538Z,14.38
2023-05-04T21:24:13.625Z,14.60
2023-05-04T21:26:42.484Z,14.41
2023-05-04T21:29:15.798Z,14.97
2023-05-04T21:31:44.313Z,14.63
2023-05-04T21:34:13.124Z,14.62
2023-05-04T21:36:41.827Z,14.53
2023-05-04T21:39:10.424Z,14.33
2023-05-04T21:41:39.786Z,14.58
2023-05-04T21:44:08.434Z,14.12
2023-05-04T21:46:38.014Z,14.43
2023-05-04T21:49:08.552Z,14.90
2023-05-04T21:51:37.054Z,14.13
2023-05-04T21:54:05.806Z,13.97
2023-05-04T21:56:33.990Z,13.89
2023-05-04T21:59:03.150Z,13.89
2023-05-04T22:01:31.425Z,13.82
2023-05-04T22:04:01.529Z,14.20
2023-05-04T22:06:30.585Z,13.93
2023-05-04T22:08:59.198Z,13.88
2023-05-04T22:11:27.589Z,13.81
2023-05-04T22:13:56.624Z,13.81
2023-05-04T22:16:24.935Z,13.98
2023-05-04T22:18:53.773Z,13.78
2023-05-04T22:21:23.305Z,14.18
2023-05-04T22:23:52.154Z,13.80
2023-05-04T22:26:20.445Z,13.80
2023-05-04T22:28:48.947Z,13.86
2023-05-04T22:31:17.454Z,13.97
2023-05-04T22:33:46.282Z,13.88
2023-05-04T22:36:14.515Z,13.87
2023-05-04T22:38:45.218Z,14.30
2023-05-04T22:41:14.613Z,14.06
2023-05-04T22:43:43.191Z,13.47
2023-05-04T22:46:15.879Z,13.70
2023-05-04T22:48:44.463Z,13.25
2023-05-04T22:51:13.464Z,13.36
2023-05-04T22:53:42.067Z,13.17
2023-05-04T22:56:12.025Z,13.53
2023-05-04T22:58:40.865Z,13.17
2023-05-04T23:01:10.282Z,13.56
2023-05-04T23:03:39.401Z,13.16
2023-05-04T23:06:08.773Z,13.05
2023-05-04T23:08:37.545Z,13.07
2023-05-04T23:11:06.029Z,13.29
2023-05-04T23:13:36.748Z,13.54
2023-05-04T23:16:05.550Z,13.40
2023-05-04T23:18:34.156Z,13.31
2023-05-04T23:21:02.349Z,13.29
2023-05-04T23:23:31.286Z,13.34
2023-05-04T23:25:59.554Z,13.43
2023-05-04T23:28:28.739Z,13.34
2023-05-04T23:30:58.602Z,13.69
2023-05-04T23:33:27.326Z,13.28
2023-05-04T23:35:56.822Z,13.23
2023-05-04T23:38:25.436Z,13.21
2023-05-04T23:40:53.992Z,13.30
2023-05-04T23:43:23.006Z,13.28
2023-05-04T23:45:51.670Z,13.10
2023-05-04T23:48:21.999Z,13.31
2023-05-04T23:50:53.922Z,13.29
2023-05-04T23:53:22.706Z,12.89
2023-05-04T23:55:58.112Z,13.33
2023-05-04T23:58:27.027Z,12.96
